sensor_id;sensor_type;location;lat;lon;timestamp;pressure;altitude;pressure_sealevel;temperature;humidity
36092;BME280;22147;52.388;13.390;2023-05-20T00:00:21;102035.66;;;9.60;100.00
36092;BME280;22147;52.388;13.390;2023-05-20T00:02:50;102032.94;;;9.55;100.00
36092;BME280;22147;52.388;13.390;2023-05-20T00:05:18;102031.84;;;9.51;100.00
36092;BME280;22147;52.388;13.390;2023-05-20T00:07:46;102043.28;;;9.44;100.00
36092;BME280;22147;52.388;13.390;2023-05-20T00:10:15;102032.47;;;9.43;100.00
36092;BME280;22147;52.388;13.390;2023-05-20T00:12:43;102031.38;;;9.38;100.00
36092;BME280;22147;52.388;13.390;2023-05-20T00:15:12;102030.03;;;9.36;100.00
36092;BME280;22147;52.388;13.390;2023-05-20T00:17:40;102018.41;;;9.29;100.00
36092;BME280;22147;52.388;13.390;2023-05-20T00:20:09;102020.94;;;9.25;100.00
36092;BME280;22147;52.388;13.390;2023-05-20T00:22:37;102022.63;;;9.21;100.00
36092;BME280;22147;52.388;13.390;2023-05-20T00:25:06;102024.31;;;9.17;100.00
36092;BME280;22147;52.388;13.390;2023-05-20T00:27:34;102014.94;;;9.13;100.00
36092;BME280;22147;52.388;13.390;2023-05-20T00:30:02;102029.66;;;9.08;100.00
36092;BME280;22147;52.388;13.390;2023-05-20T00:32:31;102025.47;;;9.06;100.00
36092;BME280;22147;52.388;13.390;2023-05-20T00:35:01;102018.84;;;9.07;100.00
36092;BME280;22147;52.388;13.390;2023-05-20T00:37:30;102021.13;;;9.00;100.00
36092;BME280;22147;52.388;13.390;2023-05-20T00:39:59;102020.84;;;8.96;100.00
36092;BME280;22147;52.388;13.390;2023-05-20T00:42:28;102020.59;;;8.92;100.00
36092;BME280;22147;52.388;13.390;2023-05-20T00:44:56;102023.91;;;8.94;100.00
36092;BME280;22147;52.388;13.390;2023-05-20T00:47:33;102030.56;;;8.93;100.00
36092;BME280;22147;52.388;13.390;2023-05-20T00:50:03;102022.25;;;8.88;100.00
36092;BME280;22147;52.388;13.390;2023-05-20T00:52:35;102010.63;;;8.86;100.00
36092;BME280;22147;52.388;13.390;2023-05-20T00:55:06;102022.31;;;8.83;100.00
36092;BME280;22147;52.388;13.390;2023-05-20T00:57:36;102021.47;;;8.83;100.00
36092;BME280;22147;52.388;13.390;2023-05-20T01:00:08;102021.47;;;8.83;100.00
36092;BME280;22147;52.388;13.390;2023-05-20T01:02:39;102023.16;;;8.79;100.00
36092;BME280;22147;52.388;13.390;2023-05-20T01:05:09;102019.31;;;8.74;100.00
36092;BME280;22147;52.388;13.390;2023-05-20T01:07:40;102015.69;;;8.74;100.00
36092;BME280;22147;52.388;13.390;2023-05-20T01:10:10;102012.66;;;8.70;100.00
36092;BME280;22147;52.388;13.390;2023-05-20T01:12:57;102011.31;;;8.68;100.00
36092;BME280;22147;52.388;13.390;2023-05-20T01:15:31;102005.50;;;8.64;100.00
36092;BME280;22147;52.388;13.390;2023-05-20T01:18:07;102003.00;;;8.63;100.00
36092;BME280;22147;52.388;13.390;2023-05-20T01:20:39;101999.69;;;8.61;100.00
36092;BME280;22147;52.388;13.390;2023-05-20T01:23:10;102000.81;;;8.60;100.00
36092;BME280;22147;52.388;13.390;2023-05-20T01:25:40;101998.88;;;8.55;100.00
36092;BME280;22147;52.388;13.390;2023-05-20T01:28:11;102004.41;;;8.55;100.00
36092;BME280;22147;52.388;13.390;2023-05-20T01:30:51;102001.69;;;8.50;100.00
36092;BME280;22147;52.388;13.390;2023-05-20T01:33:27;102002.50;;;8.55;100.00
36092;BME280;22147;52.388;13.390;2023-05-20T01:35:59;101995.59;;;8.53;100.00
36092;BME280;22147;52.388;13.390;2023-05-20T01:38:31;101995.28;;;8.54;100.00
36092;BME280;22147;52.388;13.390;2023-05-20T01:41:05;101985.59;;;8.52;100.00
36092;BME280;22147;52.388;13.390;2023-05-20T01:43:38;102006.34;;;8.54;100.00
36092;BME280;22147;52.388;13.390;2023-05-20T01:46:09;102000.81;;;8.54;100.00
36092;BME280;22147;52.388;13.390;2023-05-20T01:48:39;102003.03;;;8.58;100.00
36092;BME280;22147;52.388;13.390;2023-05-20T01:51:10;102002.72;;;8.59;100.00
36092;BME280;22147;52.388;13.390;2023-05-20T01:53:40;101994.69;;;8.63;100.00
36092;BME280;22147;52.388;13.390;2023-05-20T01:56:10;101985.25;;;8.69;100.00
36092;BME280;22147;52.388;13.390;2023-05-20T01:58:40;101992.69;;;8.73;100.00
36092;BME280;22147;52.388;13.390;2023-05-20T02:01:10;101991.59;;;8.74;100.00
36092;BME280;22147;52.388;13.390;2023-05-20T02:03:41;101989.38;;;8.76;100.00
36092;BME280;22147;52.388;13.390;2023-05-20T02:06:11;101990.19;;;8.77;100.00
36092;BME280;22147;52.388;13.390;2023-05-20T02:08:41;101991.25;;;8.86;100.00
36092;BME280;22147;52.388;13.390;2023-05-20T02:11:11;101985.47;;;8.83;100.00
36092;BME280;22147;52.388;13.390;2023-05-20T02:13:41;101986.00;;;8.85;100.00
36092;BME280;22147;52.388;13.390;2023-05-20T02:16:12;101982.38;;;8.84;100.00
36092;BME280;22147;52.388;13.390;2023-05-20T02:18:42;101993.47;;;8.84;100.00
36092;BME280;22147;52.388;13.390;2023-05-20T02:21:13;101987.94;;;8.84;100.00
36092;BME280;22147;52.388;13.390;2023-05-20T02:23:43;101983.47;;;8.93;100.00
36092;BME280;22147;52.388;13.390;2023-05-20T02:26:14;101984.28;;;8.94;100.00
36092;BME280;22147;52.388;13.390;2023-05-20T02:28:42;101975.38;;;8.97;100.00
36092;BME280;22147;52.388;13.390;2023-05-20T02:31:13;101982.59;;;8.98;100.00
36092;BME280;22147;52.388;13.390;2023-05-20T02:33:42;101988.91;;;9.04;100.00
36092;BME280;22147;52.388;13.390;2023-05-20T02:36:10;101980.59;;;9.04;100.00
36092;BME280;22147;52.388;13.390;2023-05-20T02:38:39;101987.56;;;9.01;100.00
36092;BME280;22147;52.388;13.390;2023-05-20T02:41:07;101981.78;;;8.98;100.00
36092;BME280;22147;52.388;13.390;2023-05-20T02:43:37;101999.75;;;9.00;100.00
36092;BME280;22147;52.388;13.390;2023-05-20T02:46:09;101993.63;;;9.03;100.00
36092;BME280;22147;52.388;13.390;2023-05-20T02:48:39;101988.91;;;9.04;100.00
36092;BME280;22147;52.388;13.390;2023-05-20T02:51:10;101994.72;;;9.07;100.00
36092;BME280;22147;52.388;13.390;2023-05-20T02:53:40;101998.56;;;9.11;100.00
36092;BME280;22147;52.388;13.390;2023-05-20T02:56:10;101993.56;;;9.13;100.00
36092;BME280;22147;52.388;13.390;2023-05-20T02:58:42;101998.56;;;9.11;100.00
36092;BME280;22147;52.388;13.390;2023-05-20T03:01:12;101999.38;;;9.17;100.00
36092;BME280;22147;52.388;13.390;2023-05-20T03:03:42;101997.38;;;9.23;100.00
36092;BME280;22147;52.388;13.390;2023-05-20T03:06:12;102000.75;;;9.20;100.00
36092;BME280;22147;52.388;13.390;2023-05-20T03:08:43;102003.19;;;9.26;100.00
36092;BME280;22147;52.388;13.390;2023-05-20T03:11:13;102004.00;;;9.27;100.00
36092;BME280;22147;52.388;13.390;2023-05-20T03:13:43;102007.38;;;9.24;100.00
36092;BME280;22147;52.388;13.390;2023-05-20T03:16:13;102013.19;;;9.27;100.00
36092;BME280;22147;52.388;13.390;2023-05-20T03:18:45;102009.88;;;9.25;100.00
36092;BME280;22147;52.388;13.390;2023-05-20T03:21:15;102014.00;;;9.28;100.00
36092;BME280;22147;52.388;13.390;2023-05-20T03:23:44;102007.84;;;9.31;100.00
36092;BME280;22147;52.388;13.390;2023-05-20T03:26:12;102011.72;;;9.35;100.00
36092;BME280;22147;52.388;13.390;2023-05-20T03:28:41;102012.78;;;9.39;100.00
36092;BME280;22147;52.388;13.390;2023-05-20T03:31:09;102010.03;;;9.39;100.00
36092;BME280;22147;52.388;13.390;2023-05-20T03:33:38;102011.69;;;9.40;100.00
36092;BME280;22147;52.388;13.390;2023-05-20T03:36:06;102003.84;;;9.47;100.00
36092;BME280;22147;52.388;13.390;2023-05-20T03:38:34;102007.16;;;9.49;100.00
36092;BME280;22147;52.388;13.390;2023-05-20T03:41:03;102007.44;;;9.48;100.00
36092;BME280;22147;52.388;13.390;2023-05-20T03:43:31;102010.81;;;9.45;100.00
36092;BME280;22147;52.388;13.390;2023-05-20T03:46:01;102008.59;;;9.47;100.00
36092;BME280;22147;52.388;13.390;2023-05-20T03:48:32;102007.75;;;9.46;100.00
36092;BME280;22147;52.388;13.390;2023-05-20T03:51:02;102004.94;;;9.51;100.00
36092;BME280;22147;52.388;13.390;2023-05-20T03:53:32;102008.19;;;9.58;100.00
36092;BME280;22147;52.388;13.390;2023-05-20T03:56:03;102007.34;;;9.63;100.00
36092;BME280;22147;52.388;13.390;2023-05-20T03:58:33;102014.25;;;9.66;100.00
36092;BME280;22147;52.388;13.390;2023-05-20T04:01:04;102012.31;;;9.66;100.00
36092;BME280;22147;52.388;13.390;2023-05-20T04:03:34;102016.16;;;9.70;100.00
36092;BME280;22147;52.388;13.390;2023-05-20T04:06:04;102001.16;;;9.71;100.00
36092;BME280;22147;52.388;13.390;2023-05-20T04:08:35;102003.06;;;9.76;100.00
36092;BME280;22147;52.388;13.390;2023-05-20T04:11:05;102000.53;;;9.79;100.00
36092;BME280;22147;52.388;13.390;2023-05-20T04:13:35;102002.94;;;9.86;100.00
36092;BME280;22147;52.388;13.390;2023-05-20T04:16:06;102001.56;;;9.89;100.00
36092;BME280;22147;52.388;13.390;2023-05-20T04:18:36;102003.47;;;9.88;100.00
36092;BME280;22147;52.388;13.390;2023-05-20T04:21:08;102000.44;;;9.90;100.00
36092;BME280;22147;52.388;13.390;2023-05-20T04:23:38;101998.19;;;9.92;100.00
36092;BME280;22147;52.388;13.390;2023-05-20T04:26:08;101995.06;;;9.98;100.00
36092;BME280;22147;52.388;13.390;2023-05-20T04:28:39;102012.31;;;9.95;100.00
36092;BME280;22147;52.388;13.390;2023-05-20T04:31:10;101999.84;;;9.93;100.00
36092;BME280;22147;52.388;13.390;2023-05-20T04:33:41;102009.81;;;9.94;100.00
36092;BME280;22147;52.388;13.390;2023-05-20T04:36:14;102009.53;;;9.95;100.00
36092;BME280;22147;52.388;13.390;2023-05-20T04:38:45;102007.31;;;9.97;100.00
36092;BME280;22147;52.388;13.390;2023-05-20T04:41:16;102004.47;;;10.03;100.00
36092;BME280;22147;52.388;13.390;2023-05-20T04:43:47;102008.38;;;10.02;100.00
36092;BME280;22147;52.388;13.390;2023-05-20T04:46:18;102005.59;;;10.02;100.00
36092;BME280;22147;52.388;13.390;2023-05-20T04:48:49;102006.66;;;10.06;100.00
36092;BME280;22147;52.388;13.390;2023-05-20T04:51:19;101998.63;;;10.04;100.00
36092;BME280;22147;52.388;13.390;2023-05-20T04:53:49;102000.25;;;10.05;100.00
36092;BME280;22147;52.388;13.390;2023-05-20T04:56:20;102004.75;;;10.01;100.00
36092;BME280;22147;52.388;13.390;2023-05-20T04:58:51;102005.00;;;10.05;100.00
36092;BME280;22147;52.388;13.390;2023-05-20T05:01:21;102002.22;;;10.05;100.00
36092;BME280;22147;52.388;13.390;2023-05-20T05:03:51;101995.50;;;10.11;100.00
36092;BME280;22147;52.388;13.390;2023-05-20T05:06:22;102006.31;;;10.12;100.00
36092;BME280;22147;52.388;13.390;2023-05-20T05:08:52;101991.00;;;10.15;100.00
36092;BME280;22147;52.388;13.390;2023-05-20T05:11:22;101991.53;;;10.17;100.00
36092;BME280;22147;52.388;13.390;2023-05-20T05:13:54;101997.69;;;10.14;100.00
36092;BME280;22147;52.388;13.390;2023-05-20T05:16:24;102000.94;;;10.21;100.00
36092;BME280;22147;52.388;13.390;2023-05-20T05:18:54;102000.41;;;10.19;100.00
36092;BME280;22147;52.388;13.390;2023-05-20T05:21:25;102006.22;;;10.23;100.00
36092;BME280;22147;52.388;13.390;2023-05-20T05:23:56;102001.47;;;10.23;100.00
36092;BME280;22147;52.388;13.390;2023-05-20T05:26:27;102011.22;;;10.21;100.00
36092;BME280;22147;52.388;13.390;2023-05-20T05:28:57;102008.09;;;10.27;100.00
36092;BME280;22147;52.388;13.390;2023-05-20T05:31:27;101999.72;;;10.32;100.00
36092;BME280;22147;52.388;13.390;2023-05-20T05:33:57;101992.69;;;10.40;100.00
36092;BME280;22147;52.388;13.390;2023-05-20T05:36:28;101991.53;;;10.46;100.00
36092;BME280;22147;52.388;13.390;2023-05-20T05:38:58;101990.00;;;10.54;100.00
36092;BME280;22147;52.388;13.390;2023-05-20T05:41:28;101988.38;;;10.53;100.00
36092;BME280;22147;52.388;13.390;2023-05-20T05:43:59;101992.75;;;10.59;100.00
36092;BME280;22147;52.388;13.390;2023-05-20T05:46:29;101991.44;;;10.51;100.00
36092;BME280;22147;52.388;13.390;2023-05-20T05:48:58;101978.84;;;10.59;100.00
36092;BME280;22147;52.388;13.390;2023-05-20T05:51:26;101983.22;;;10.65;100.00
36092;BME280;22147;52.388;13.390;2023-05-20T05:53:54;101986.16;;;10.74;100.00
36092;BME280;22147;52.388;13.390;2023-05-20T05:56:23;101989.09;;;10.83;100.00
36092;BME280;22147;52.388;13.390;2023-05-20T05:58:51;101999.25;;;10.92;100.00
36092;BME280;22147;52.388;13.390;2023-05-20T06:01:20;101985.25;;;10.78;100.00
36092;BME280;22147;52.388;13.390;2023-05-20T06:03:48;101983.44;;;10.88;100.00
36092;BME280;22147;52.388;13.390;2023-05-20T06:06:17;101971.75;;;10.91;100.00
36092;BME280;22147;52.388;13.390;2023-05-20T06:08:45;101975.09;;;10.88;100.00
36092;BME280;22147;52.388;13.390;2023-05-20T06:11:13;101965.13;;;10.87;100.00
36092;BME280;22147;52.388;13.390;2023-05-20T06:13:42;101969.34;;;11.03;100.00
36092;BME280;22147;52.388;13.390;2023-05-20T06:16:10;101970.41;;;11.07;100.00
36092;BME280;22147;52.388;13.390;2023-05-20T06:18:39;101976.69;;;11.13;100.00
36092;BME280;22147;52.388;13.390;2023-05-20T06:21:07;101967.81;;;11.30;100.00
36092;BME280;22147;52.388;13.390;2023-05-20T06:23:35;101973.31;;;11.35;100.00
36092;BME280;22147;52.388;13.390;2023-05-20T06:26:04;101972.13;;;11.22;100.00
36092;BME280;22147;52.388;13.390;2023-05-20T06:28:33;101978.25;;;11.19;100.00
36092;BME280;22147;52.388;13.390;2023-05-20T06:31:01;101970.44;;;11.21;100.00
36092;BME280;22147;52.388;13.390;2023-05-20T06:33:29;101970.47;;;11.02;100.00
36092;BME280;22147;52.388;13.390;2023-05-20T06:35:58;101978.66;;;11.12;100.00
36092;BME280;22147;52.388;13.390;2023-05-20T06:38:29;101974.38;;;11.20;100.00
36092;BME280;22147;52.388;13.390;2023-05-20T06:40:57;101983.06;;;11.32;100.00
36092;BME280;22147;52.388;13.390;2023-05-20T06:43:26;101986.53;;;11.43;100.00
36092;BME280;22147;52.388;13.390;2023-05-20T06:45:54;101992.75;;;11.54;100.00
36092;BME280;22147;52.388;13.390;2023-05-20T06:48:23;101993.78;;;11.58;100.00
36092;BME280;22147;52.388;13.390;2023-05-20T06:50:51;101990.72;;;11.40;100.00
36092;BME280;22147;52.388;13.390;2023-05-20T06:53:19;101999.28;;;11.44;100.00
36092;BME280;22147;52.388;13.390;2023-05-20T06:55:48;101998.31;;;11.54;100.00
36092;BME280;22147;52.388;13.390;2023-05-20T06:58:16;102003.34;;;11.52;100.00
36092;BME280;22147;52.388;13.390;2023-05-20T07:00:46;102001.09;;;11.54;100.00
36092;BME280;22147;52.388;13.390;2023-05-20T07:03:13;101993.34;;;11.51;100.00
36092;BME280;22147;52.388;13.390;2023-05-20T07:05:42;101993.13;;;11.47;100.00
36092;BME280;22147;52.388;13.390;2023-05-20T07:08:10;101990.84;;;11.49;100.00
36092;BME280;22147;52.388;13.390;2023-05-20T07:10:38;101990.38;;;11.61;100.00
36092;BME280;22147;52.388;13.390;2023-05-20T07:13:07;101977.00;;;11.63;100.00
36092;BME280;22147;52.388;13.390;2023-05-20T07:15:35;101989.34;;;11.57;100.00
36092;BME280;22147;52.388;13.390;2023-05-20T07:18:04;101981.44;;;11.64;100.00
36092;BME280;22147;52.388;13.390;2023-05-20T07:20:32;101969.63;;;11.86;100.00
36092;BME280;22147;52.388;13.390;2023-05-20T07:23:01;101964.47;;;11.79;100.00
36092;BME280;22147;52.388;13.390;2023-05-20T07:25:32;101956.00;;;11.85;100.00
36092;BME280;22147;52.388;13.390;2023-05-20T07:28:03;101955.72;;;12.00;100.00
36092;BME280;22147;52.388;13.390;2023-05-20T07:30:33;101950.91;;;12.19;100.00
36092;BME280;22147;52.388;13.390;2023-05-20T07:33:04;101953.38;;;12.21;100.00
36092;BME280;22147;52.388;13.390;2023-05-20T07:35:34;101950.81;;;12.38;100.00
36092;BME280;22147;52.388;13.390;2023-05-20T07:38:05;101952.22;;;12.50;100.00
36092;BME280;22147;52.388;13.390;2023-05-20T07:40:35;101952.31;;;12.72;100.00
36092;BME280;22147;52.388;13.390;2023-05-20T07:43:09;101954.16;;;12.63;100.00
36092;BME280;22147;52.388;13.390;2023-05-20T07:45:39;101957.31;;;12.84;100.00
36092;BME280;22147;52.388;13.390;2023-05-20T07:48:09;101943.16;;;12.94;100.00
36092;BME280;22147;52.388;13.390;2023-05-20T07:50:41;101949.88;;;13.16;100.00
36092;BME280;22147;52.388;13.390;2023-05-20T07:53:13;101947.66;;;13.40;100.00
36092;BME280;22147;52.388;13.390;2023-05-20T07:55:43;101958.34;;;13.47;100.00
36092;BME280;22147;52.388;13.390;2023-05-20T07:58:16;101958.91;;;13.58;100.00
36092;BME280;22147;52.388;13.390;2023-05-20T08:00:47;101954.31;;;13.53;100.00
36092;BME280;22147;52.388;13.390;2023-05-20T08:03:17;101952.00;;;13.10;100.00
36092;BME280;22147;52.388;13.390;2023-05-20T08:05:48;101945.13;;;12.94;100.00
36092;BME280;22147;52.388;13.390;2023-05-20T08:08:19;101945.31;;;13.20;100.00
36092;BME280;22147;52.388;13.390;2023-05-20T08:10:50;101942.75;;;13.46;100.00
36092;BME280;22147;52.388;13.390;2023-05-20T08:13:20;101953.53;;;13.39;100.00
36092;BME280;22147;52.388;13.390;2023-05-20T08:15:49;101954.09;;;13.50;100.00
36092;BME280;22147;52.388;13.390;2023-05-20T08:18:24;101949.47;;;13.68;100.00
36092;BME280;22147;52.388;13.390;2023-05-20T08:20:56;101948.50;;;13.72;100.00
36092;BME280;22147;52.388;13.390;2023-05-20T08:23:26;101943.44;;;13.52;100.00
36092;BME280;22147;52.388;13.390;2023-05-20T08:25:56;101943.00;;;13.58;100.00
36092;BME280;22147;52.388;13.390;2023-05-20T08:28:32;101930.63;;;13.82;100.00
36092;BME280;22147;52.388;13.390;2023-05-20T08:31:02;101932.16;;;13.88;100.00
36092;BME280;22147;52.388;13.390;2023-05-20T08:33:33;101926.81;;;14.09;100.00
36092;BME280;22147;52.388;13.390;2023-05-20T08:36:03;101922.63;;;14.29;100.00
36092;BME280;22147;52.388;13.390;2023-05-20T08:38:33;101923.13;;;13.91;100.00
36092;BME280;22147;52.388;13.390;2023-05-20T08:41:05;101911.81;;;13.65;100.00
36092;BME280;22147;52.388;13.390;2023-05-20T08:43:36;101919.66;;;13.85;100.00
36092;BME280;22147;52.388;13.390;2023-05-20T08:46:08;101913.59;;;13.92;100.00
36092;BME280;22147;52.388;13.390;2023-05-20T08:48:39;101920.34;;;13.91;100.00
36092;BME280;22147;52.388;13.390;2023-05-20T08:51:10;101919.03;;;13.89;100.00
36092;BME280;22147;52.388;13.390;2023-05-20T08:53:42;101914.63;;;14.05;100.00
36092;BME280;22147;52.388;13.390;2023-05-20T08:56:15;101918.41;;;14.00;100.00
36092;BME280;22147;52.388;13.390;2023-05-20T08:58:46;101920.88;;;14.02;100.00
36092;BME280;22147;52.388;13.390;2023-05-20T09:01:17;101919.69;;;13.94;100.00
36092;BME280;22147;52.388;13.390;2023-05-20T09:03:47;101919.28;;;14.10;100.00
36092;BME280;22147;52.388;13.390;2023-05-20T09:06:18;101930.25;;;14.06;100.00
36092;BME280;22147;52.388;13.390;2023-05-20T09:08:49;101930.00;;;13.85;100.00
36092;BME280;22147;52.388;13.390;2023-05-20T09:11:20;101924.75;;;13.83;100.00
36092;BME280;22147;52.388;13.390;2023-05-20T09:13:51;101918.09;;;13.71;100.00
36092;BME280;22147;52.388;13.390;2023-05-20T09:16:22;101916.13;;;13.71;100.00
36092;BME280;22147;52.388;13.390;2023-05-20T09:18:55;101912.56;;;13.79;100.00
36092;BME280;22147;52.388;13.390;2023-05-20T09:21:29;101913.44;;;13.89;100.00
36092;BME280;22147;52.388;13.390;2023-05-20T09:24:01;101911.00;;;13.96;100.00
36092;BME280;22147;52.388;13.390;2023-05-20T09:26:31;101916.44;;;14.01;100.00
36092;BME280;22147;52.388;13.390;2023-05-20T09:29:02;101907.19;;;13.92;100.00
36092;BME280;22147;52.388;13.390;2023-05-20T09:31:33;101909.03;;;13.96;100.00
36092;BME280;22147;52.388;13.390;2023-05-20T09:34:05;101909.41;;;14.03;100.00
36092;BME280;22147;52.388;13.390;2023-05-20T09:36:39;101914.25;;;14.29;100.00
36092;BME280;22147;52.388;13.390;2023-05-20T09:39:17;101916.69;;;14.31;100.00
36092;BME280;22147;52.388;13.390;2023-05-20T09:42:04;101918.41;;;14.00;100.00
36092;BME280;22147;52.388;13.390;2023-05-20T09:44:44;101924.28;;;13.90;100.00
36092;BME280;22147;52.388;13.390;2023-05-20T09:47:16;101918.03;;;13.84;100.00
36092;BME280;22147;52.388;13.390;2023-05-20T09:49:49;101912.97;;;13.95;100.00
36092;BME280;22147;52.388;13.390;2023-05-20T09:52:21;101911.81;;;13.96;100.00
36092;BME280;22147;52.388;13.390;2023-05-20T09:54:55;101907.50;;;13.90;100.00
36092;BME280;22147;52.388;13.390;2023-05-20T09:57:33;101906.69;;;13.90;100.00
36092;BME280;22147;52.388;13.390;2023-05-20T10:00:06;101909.84;;;13.97;100.00
36092;BME280;22147;52.388;13.390;2023-05-20T10:02:51;101907.91;;;14.06;100.00
36092;BME280;22147;52.388;13.390;2023-05-20T10:05:30;101902.56;;;14.36;100.00
36092;BME280;22147;52.388;13.390;2023-05-20T10:12:54;101887.34;;;14.59;100.00
36092;BME280;22147;52.388;13.390;2023-05-20T10:15:38;101896.25;;;14.79;100.00
36092;BME280;22147;52.388;13.390;2023-05-20T10:21:24;101895.25;;;15.10;100.00
36092;BME280;22147;52.388;13.390;2023-05-20T10:24:05;101875.09;;;15.42;100.00
36092;BME280;22147;52.388;13.390;2023-05-20T10:26:39;101879.66;;;15.64;100.00
36092;BME280;22147;52.388;13.390;2023-05-20T10:29:17;101883.19;;;16.21;98.85
36092;BME280;22147;52.388;13.390;2023-05-20T10:31:51;101885.56;;;16.40;94.46
36092;BME280;22147;52.388;13.390;2023-05-20T10:34:22;101874.47;;;16.22;96.64
36092;BME280;22147;52.388;13.390;2023-05-20T10:39:31;101870.25;;;16.07;95.02
36092;BME280;22147;52.388;13.390;2023-05-20T10:42:11;101880.47;;;15.65;97.92
36092;BME280;22147;52.388;13.390;2023-05-20T10:44:46;101874.19;;;15.68;98.98
36092;BME280;22147;52.388;13.390;2023-05-20T10:47:18;101875.09;;;15.98;97.35
36092;BME280;22147;52.388;13.390;2023-05-20T10:49:54;101870.53;;;15.85;95.11
36092;BME280;22147;52.388;13.390;2023-05-20T10:52:25;101875.97;;;15.90;94.38
36092;BME280;22147;52.388;13.390;2023-05-20T10:54:57;101866.91;;;15.84;98.11
36092;BME280;22147;52.388;13.390;2023-05-20T10:57:30;101857.84;;;16.17;96.31
36092;BME280;22147;52.388;13.390;2023-05-20T11:00:04;101860.06;;;16.54;95.58
36092;BME280;22147;52.388;13.390;2023-05-20T11:02:40;101852.94;;;16.56;93.19
36092;BME280;22147;52.388;13.390;2023-05-20T11:05:12;101845.66;;;16.64;93.80
36092;BME280;22147;52.388;13.390;2023-05-20T11:07:45;101845.19;;;16.74;91.42
36092;BME280;22147;52.388;13.390;2023-05-20T11:10:14;101850.66;;;17.13;92.03
36092;BME280;22147;52.388;13.390;2023-05-20T11:12:42;101849.19;;;16.94;90.97
36092;BME280;22147;52.388;13.390;2023-05-20T11:15:11;101836.78;;;16.95;90.13
36092;BME280;22147;52.388;13.390;2023-05-20T11:18:01;101835.91;;;16.61;93.39
36092;BME280;22147;52.388;13.390;2023-05-20T11:20:33;101833.88;;;16.49;91.60
36092;BME280;22147;52.388;13.390;2023-05-20T11:23:05;101832.66;;;16.38;93.44
36092;BME280;22147;52.388;13.390;2023-05-20T11:25:40;101833.00;;;16.58;93.97
36092;BME280;22147;52.388;13.390;2023-05-20T11:28:13;101840.22;;;16.80;92.64
36092;BME280;22147;52.388;13.390;2023-05-20T11:30:44;101839.22;;;17.18;90.97
36092;BME280;22147;52.388;13.390;2023-05-20T11:33:16;101835.06;;;17.03;87.86
36092;BME280;22147;52.388;13.390;2023-05-20T11:35:50;101821.38;;;17.01;87.15
36092;BME280;22147;52.388;13.390;2023-05-20T11:38:21;101817.75;;;17.46;87.33
36092;BME280;22147;52.388;13.390;2023-05-20T11:40:54;101822.31;;;17.76;87.20
36092;BME280;22147;52.388;13.390;2023-05-20T11:43:25;101832.91;;;18.03;84.20
36092;BME280;22147;52.388;13.390;2023-05-20T11:45:56;101826.91;;;17.93;84.39
36092;BME280;22147;52.388;13.390;2023-05-20T11:48:28;101817.22;;;17.20;87.83
36092;BME280;22147;52.388;13.390;2023-05-20T11:50:57;101810.69;;;17.16;89.83
36092;BME280;22147;52.388;13.390;2023-05-20T11:53:28;101807.72;;;16.79;91.33
36092;BME280;22147;52.388;13.390;2023-05-20T11:55:59;101807.59;;;16.96;92.21
36092;BME280;22147;52.388;13.390;2023-05-20T11:58:31;101800.06;;;17.21;91.50
36092;BME280;22147;52.388;13.390;2023-05-20T12:01:01;101795.84;;;17.27;89.05
36092;BME280;22147;52.388;13.390;2023-05-20T12:03:49;101791.66;;;17.58;90.66
36092;BME280;22147;52.388;13.390;2023-05-20T12:06:20;101785.22;;;17.45;88.80
36092;BME280;22147;52.388;13.390;2023-05-20T12:08:50;101799.97;;;17.67;89.80
36092;BME280;22147;52.388;13.390;2023-05-20T12:11:20;101797.28;;;17.34;86.41
36092;BME280;22147;52.388;13.390;2023-05-20T12:13:51;101797.03;;;17.76;88.91
36092;BME280;22147;52.388;13.390;2023-05-20T12:16:21;101784.69;;;17.89;85.04
36092;BME280;22147;52.388;13.390;2023-05-20T12:18:50;101776.47;;;17.96;86.69
36092;BME280;22147;52.388;13.390;2023-05-20T12:21:21;101779.41;;;17.87;87.28
36092;BME280;22147;52.388;13.390;2023-05-20T12:23:50;101780.91;;;17.60;85.91
36092;BME280;22147;52.388;13.390;2023-05-20T12:26:28;101778.13;;;17.85;87.13
36092;BME280;22147;52.388;13.390;2023-05-20T12:28:58;101775.63;;;18.20;86.02
36092;BME280;22147;52.388;13.390;2023-05-20T12:31:28;101774.06;;;18.35;84.03
36092;BME280;22147;52.388;13.390;2023-05-20T12:34:01;101768.47;;;18.10;83.59
36092;BME280;22147;52.388;13.390;2023-05-20T12:36:32;101764.44;;;18.36;83.53
36092;BME280;22147;52.388;13.390;2023-05-20T12:39:02;101752.81;;;18.38;82.49
36092;BME280;22147;52.388;13.390;2023-05-20T12:41:32;101751.72;;;18.14;84.90
36092;BME280;22147;52.388;13.390;2023-05-20T12:44:02;101748.75;;;18.35;87.81
36092;BME280;22147;52.388;13.390;2023-05-20T12:46:35;101754.63;;;18.18;84.41
36092;BME280;22147;52.388;13.390;2023-05-20T12:49:05;101748.16;;;18.29;84.96
36092;BME280;22147;52.388;13.390;2023-05-20T12:51:35;101749.91;;;18.62;83.82
36092;BME280;22147;52.388;13.390;2023-05-20T12:54:05;101749.16;;;18.78;86.67
36092;BME280;22147;52.388;13.390;2023-05-20T12:56:32;101752.00;;;18.65;83.34
36092;BME280;22147;52.388;13.390;2023-05-20T12:59:01;101751.13;;;18.77;85.08
36092;BME280;22147;52.388;13.390;2023-05-20T13:01:29;101740.97;;;18.44;81.91
36092;BME280;22147;52.388;13.390;2023-05-20T13:03:58;101734.19;;;17.80;84.28